Time;durP1;ratioP1;P1;durP2;ratioP2;P2;SDS_P1;SDS_P2;PMS_P1;PMS_P2;Temp;Humidity;BMP_temperature;BMP_pressure;BME280_temperature;BME280_humidity;BME280_pressure;Samples;Min_cycle;Max_cycle;Signal;HPM_P1;HPM_P2
2022/10/08 00:00:51;;;;;;;7.57;1.40;;;;;;;11.85;74.19;101534.78;5012451;28;20492;-76
2022/10/08 00:03:18;;;;;;;4.93;1.58;;;;;;;11.88;74.10;101536.44;5011611;28;20038;-75
2022/10/08 00:05:54;;;;;;;6.07;1.58;;;;;;;11.89;73.48;101531.22;5012276;28;20032;-75
2022/10/08 00:08:19;;;;;;;6.63;2.00;;;;;;;11.89;73.76;101527.75;5010628;28;20160;-75
2022/10/08 00:10:54;;;;;;;6.47;1.50;;;;;;;11.92;73.52;101535.50;5012732;28;20586;-76
2022/10/08 00:13:21;;;;;;;6.00;1.60;;;;;;;11.92;73.55;101525.94;5010570;28;20432;-75
2022/10/08 00:15:47;;;;;;;5.35;1.40;;;;;;;11.94;73.31;101534.59;5012203;28;20036;-75
2022/10/08 00:18:12;;;;;;;5.68;1.35;;;;;;;11.96;73.47;101539.78;5011457;28;20026;-75
2022/10/08 00:20:37;;;;;;;4.88;1.40;;;;;;;11.97;73.25;101539.72;5012280;28;20056;-75
2022/10/08 00:23:02;;;;;;;4.72;1.38;;;;;;;12.00;73.15;101538.88;5011530;28;20500;-76
2022/10/08 00:25:28;;;;;;;7.60;1.83;;;;;;;12.02;73.56;101531.00;5011162;28;20034;-76
2022/10/08 00:27:53;;;;;;;6.18;1.40;;;;;;;12.04;73.32;101530.06;5012843;28;20384;-75
2022/10/08 00:30:19;;;;;;;6.03;1.25;;;;;;;12.07;73.38;101535.22;5010038;28;20437;-75
2022/10/08 00:32:44;;;;;;;6.60;1.35;;;;;;;12.10;72.99;101532.56;5012186;28;20034;-75
2022/10/08 00:35:09;;;;;;;8.23;1.85;;;;;;;12.13;73.27;101534.22;5012028;28;20026;-75
2022/10/08 00:37:35;;;;;;;7.03;1.50;;;;;;;12.14;72.90;101521.16;5010945;28;20437;-75
2022/10/08 00:40:00;;;;;;;6.35;1.45;;;;;;;12.17;73.23;101525.44;5011380;28;20053;-75
2022/10/08 00:42:25;;;;;;;4.35;1.60;;;;;;;12.19;73.09;101523.69;5011001;28;20107;-75
2022/10/08 00:44:56;;;;;;;7.93;1.70;;;;;;;12.22;73.20;101527.97;5012288;28;20033;-75
2022/10/08 00:47:34;;;;;;;6.35;1.30;;;;;;;12.24;73.29;101526.19;5011840;28;20050;-76
2022/10/08 00:50:02;;;;;;;5.68;1.50;;;;;;;12.26;73.42;101525.28;5008630;28;20026;-76
2022/10/08 00:52:33;;;;;;;7.30;1.50;;;;;;;12.26;73.68;101530.50;5005743;28;20048;-76
2022/10/08 00:55:00;;;;;;;8.20;1.50;;;;;;;12.29;73.57;101529.56;5010116;28;20030;-75
2022/10/08 00:57:27;;;;;;;4.68;1.58;;;;;;;12.30;73.56;101532.13;5010628;28;20029;-75
2022/10/08 00:59:53;;;;;;;7.03;1.50;;;;;;;12.34;73.70;101537.28;5010531;28;20101;-75
2022/10/08 01:02:18;;;;;;;10.50;1.77;;;;;;;12.35;73.80;101534.66;5009694;28;20101;-75
2022/10/08 01:04:45;;;;;;;8.18;1.67;;;;;;;12.37;73.73;101537.22;5010837;28;20446;-76
2022/10/08 01:07:16;;;;;;;5.30;1.52;;;;;;;12.38;73.95;101536.31;5011934;28;20100;-76
2022/10/08 01:10:09;;;;;;;9.60;1.67;;;;;;;12.40;73.22;101537.16;5008923;28;20341;-76
2022/10/08 01:12:55;;;;;;;5.32;1.40;;;;;;;12.39;73.34;101540.66;5011224;28;20209;-76
2022/10/08 01:15:38;;;;;;;5.82;1.35;;;;;;;12.40;73.40;101548.44;5010712;28;20038;-76
2022/10/08 01:18:25;;;;;;;7.72;1.50;;;;;;;12.41;73.36;101549.31;5012977;28;20034;-76
2022/10/08 01:21:08;;;;;;;6.30;1.38;;;;;;;12.42;73.16;101551.88;5011574;28;20037;-75
2022/10/08 01:24:06;;;;;;;6.97;1.50;;;;;;;12.41;73.30;101555.38;4998776;28;20034;-75
2022/10/08 01:27:03;;;;;;;5.28;1.55;;;;;;;12.40;73.22;101558.88;5012627;28;20029;-76
2022/10/08 01:29:38;;;;;;;6.75;1.77;;;;;;;12.41;73.85;101557.13;5011973;28;20112;-76
2022/10/08 01:32:11;;;;;;;4.00;1.17;;;;;;;12.39;74.13;101557.16;5011901;28;20106;-75
2022/10/08 01:34:43;;;;;;;4.88;1.85;;;;;;;12.38;74.58;101559.81;5012314;28;20037;-76
2022/10/08 01:37:27;;;;;;;13.05;1.95;;;;;;;12.37;75.35;101563.31;5012824;28;20049;-76
2022/10/08 01:39:55;;;;;;;8.85;2.17;;;;;;;12.33;76.38;101567.75;5010183;28;20033;-76
2022/10/08 01:42:24;;;;;;;5.38;1.80;;;;;;;12.31;77.08;101564.31;4994252;28;20088;-76
2022/10/08 01:45:00;;;;;;;5.18;1.83;;;;;;;12.26;77.18;101556.59;5011050;28;20420;-76
2022/10/08 01:47:27;;;;;;;4.78;1.75;;;;;;;12.22;77.92;101557.53;5011206;28;20438;-76
2022/10/08 01:50:11;;;;;;;6.72;2.08;;;;;;;12.20;77.91;101561.91;5012073;28;20026;-76
2022/10/08 01:52:42;;;;;;;6.07;2.03;;;;;;;12.16;79.06;101568.06;5007253;28;20037;-76
2022/10/08 01:55:15;;;;;;;6.07;2.47;;;;;;;12.13;78.63;101565.53;5009896;28;20032;-76
2022/10/08 01:57:44;;;;;;;5.57;2.40;;;;;;;12.09;79.44;101563.91;5010805;28;20384;-76
2022/10/08 02:00:12;;;;;;;4.80;2.45;;;;;;;12.06;79.52;101562.19;5011560;28;20061;-76
2022/10/08 02:02:39;;;;;;;6.13;2.47;;;;;;;12.03;79.65;101561.41;4993062;28;20041;-76
2022/10/08 02:05:05;;;;;;;5.45;2.40;;;;;;;11.99;80.28;101564.06;5011580;28;20030;-76
2022/10/08 02:07:35;;;;;;;6.00;2.40;;;;;;;11.96;80.58;101569.31;5009205;28;20029;-76
2022/10/08 02:10:13;;;;;;;8.50;2.70;;;;;;;11.94;80.88;101575.44;5010052;28;20037;-76
2022/10/08 02:12:41;;;;;;;5.32;2.50;;;;;;;11.91;81.06;101576.38;5008570;28;20022;-76
2022/10/08 02:15:10;;;;;;;6.50;2.45;;;;;;;11.88;81.03;101581.66;5012028;28;20088;-75
2022/10/08 02:17:41;;;;;;;6.70;2.20;;;;;;;11.86;81.47;101567.78;5012560;28;20033;-76
2022/10/08 02:20:37;;;;;;;6.00;2.25;;;;;;;11.85;81.30;101579.09;4993295;28;20493;-76
2022/10/08 02:23:11;;;;;;;9.27;2.40;;;;;;;11.81;81.48;101577.44;5010324;28;20069;-76
2022/10/08 02:25:45;;;;;;;7.03;2.08;;;;;;;11.77;81.65;101573.19;5014199;28;20378;-76
2022/10/08 02:28:29;;;;;;;5.18;2.10;;;;;;;11.73;81.03;101574.97;5013897;28;20026;-75
2022/10/08 02:31:05;;;;;;;7.20;2.08;;;;;;;11.68;81.98;101569.00;5013099;28;20034;-75
2022/10/08 02:33:55;;;;;;;5.97;1.67;;;;;;;11.64;82.22;101572.53;5013752;28;20083;-76
2022/10/08 02:36:34;;;;;;;3.92;1.55;;;;;;;11.63;82.60;101573.44;5006916;28;20033;-75
2022/10/08 02:39:05;;;;;;;6.10;1.73;;;;;;;11.60;82.63;101582.19;5013238;28;20037;-76
2022/10/08 02:41:35;;;;;;;6.67;1.70;;;;;;;11.59;82.57;101570.03;4995345;28;20029;-76
2022/10/08 02:44:06;;;;;;;4.97;1.60;;;;;;;11.59;82.53;101577.84;5013105;28;20284;-76
2022/10/08 02:46:36;;;;;;;4.78;1.40;;;;;;;11.59;82.11;101577.84;4997050;28;20231;-76
2022/10/08 02:49:07;;;;;;;6.28;1.50;;;;;;;11.57;82.27;101566.59;5013198;28;20485;-76
2022/10/08 02:51:36;;;;;;;5.20;1.42;;;;;;;11.56;82.40;101564.88;5013340;28;20080;-76
2022/10/08 02:54:03;;;;;;;4.30;1.25;;;;;;;11.53;82.33;101564.91;5011773;28;20037;-76
2022/10/08 02:56:41;;;;;;;7.32;1.48;;;;;;;11.51;82.33;101572.78;5013666;28;20018;-76
2022/10/08 02:59:09;;;;;;;4.20;1.10;;;;;;;11.50;82.15;101578.00;5012905;28;20100;-76
2022/10/08 03:01:41;;;;;;;4.10;1.27;;;;;;;11.48;82.46;101574.56;4995750;28;20034;-77
2022/10/08 03:04:12;;;;;;;4.40;1.38;;;;;;;11.45;82.34;101577.22;5012154;28;20025;-76
2022/10/08 03:06:38;;;;;;;5.67;1.67;;;;;;;11.43;82.49;101582.47;4996829;28;20393;-76
2022/10/08 03:09:07;;;;;;;4.05;1.20;;;;;;;11.39;82.36;101571.25;5010817;28;20696;-75
2022/10/08 03:11:33;;;;;;;4.88;1.13;;;;;;;11.38;82.34;101569.53;5012276;28;20040;-76
2022/10/08 03:14:03;;;;;;;5.18;1.20;;;;;;;11.34;82.54;101570.44;5013937;28;20034;-76
2022/10/08 03:16:37;;;;;;;3.55;1.20;;;;;;;11.33;82.38;101573.94;5014204;28;20385;-75
2022/10/08 03:19:03;;;;;;;5.40;1.27;;;;;;;11.32;82.13;101580.03;5010865;28;20045;-76
2022/10/08 03:21:29;;;;;;;6.20;1.30;;;;;;;11.29;82.47;101582.69;5013620;28;20025;-75
2022/10/08 03:23:54;;;;;;;4.53;1.20;;;;;;;11.28;82.31;101583.56;5014197;28;20079;-76
2022/10/08 03:26:20;;;;;;;7.35;1.52;;;;;;;11.28;82.52;101587.94;5013820;28;20029;-76
2022/10/08 03:28:45;;;;;;;2.75;1.20;;;;;;;11.28;82.35;101591.38;5014099;28;20049;-76
2022/10/08 03:31:10;;;;;;;4.10;1.20;;;;;;;11.29;82.29;101585.28;5014410;28;20026;-75
2022/10/08 03:33:36;;;;;;;3.97;1.30;;;;;;;11.29;82.18;101581.84;4995838;28;20040;-76
2022/10/08 03:36:01;;;;;;;7.28;1.40;;;;;;;11.28;82.28;101594.00;5013648;28;20418;-76
2022/10/08 03:38:27;;;;;;;5.55;1.30;;;;;;;11.29;82.40;101587.06;5013578;28;20037;-76
2022/10/08 03:40:55;;;;;;;7.22;1.13;;;;;;;11.28;82.70;101601.81;5013247;28;20493;-76
2022/10/08 03:43:21;;;;;;;3.17;1.08;;;;;;;11.27;82.53;101600.13;5012127;28;20109;-75
2022/10/08 03:45:53;;;;;;;7.53;1.50;;;;;;;11.27;82.60;101607.06;5011357;28;20180;-75
2022/10/08 03:48:19;;;;;;;4.63;1.27;;;;;;;11.25;82.74;101612.31;5011177;28;20030;-76
2022/10/08 03:50:53;;;;;;;2.97;1.20;;;;;;;11.22;82.76;101613.19;5013365;28;20021;-76
2022/10/08 03:53:19;;;;;;;4.15;1.27;;;;;;;11.19;82.59;101608.03;5012055;28;20022;-75
2022/10/08 03:55:44;;;;;;;5.18;1.20;;;;;;;11.16;82.80;101612.44;5012694;28;20461;-75
2022/10/08 03:58:10;;;;;;;5.32;1.35;;;;;;;11.13;82.91;101612.47;4994683;28;20160;-75
2022/10/08 04:00:35;;;;;;;3.90;1.08;;;;;;;11.06;83.27;101615.19;5011725;28;20021;-75
2022/10/08 04:03:00;;;;;;;4.38;1.10;;;;;;;11.03;83.10;101611.75;5008590;28;20026;-75
2022/10/08 04:05:26;;;;;;;3.72;1.38;;;;;;;10.98;83.26;101608.38;5012106;28;20076;-75
2022/10/08 04:07:51;;;;;;;5.18;1.40;;;;;;;10.93;83.66;101611.91;5012208;28;20034;-76
2022/10/08 04:10:16;;;;;;;4.53;1.35;;;;;;;10.93;83.69;101621.47;5024115;28;20097;-76
2022/10/08 04:12:42;;;;;;;3.95;1.08;;;;;;;10.91;83.93;101620.63;4994593;28;20033;-75
2022/10/08 04:15:07;;;;;;;2.83;1.30;;;;;;;10.89;83.99;101622.41;5012870;28;20384;-76
2022/10/08 04:17:33;;;;;;;6.93;1.35;;;;;;;10.84;83.91;101608.56;5011226;28;20057;-76
2022/10/08 04:19:58;;;;;;;6.40;1.40;;;;;;;10.84;84.05;101618.97;5013255;28;20162;-76
2022/10/08 04:22:23;;;;;;;5.72;1.63;;;;;;;10.80;84.07;101626.00;4993980;28;20025;-76
2022/10/08 04:24:48;;;;;;;4.55;1.40;;;;;;;10.80;84.37;101626.00;5012715;28;20373;-75
2022/10/08 04:27:14;;;;;;;4.18;1.45;;;;;;;10.78;84.23;101619.94;5012005;28;20033;-75
2022/10/08 04:29:39;;;;;;;5.45;1.52;;;;;;;10.75;84.38;101626.06;4996997;28;20233;-75
2022/10/08 04:32:04;;;;;;;3.65;1.50;;;;;;;10.74;84.50;101626.06;5012093;28;20018;-76
2022/10/08 04:34:30;;;;;;;5.68;1.50;;;;;;;10.73;84.79;101630.41;5011679;28;20018;-75
2022/10/08 04:36:55;;;;;;;4.32;1.75;;;;;;;10.75;85.13;101633.88;5010877;28;20038;-76
2022/10/08 04:39:20;;;;;;;5.35;1.70;;;;;;;10.75;85.26;101631.25;5013573;28;20021;-75
2022/10/08 04:41:45;;;;;;;8.38;2.33;;;;;;;10.78;85.59;101633.78;4993242;28;20022;-75
2022/10/08 04:44:11;;;;;;;3.85;2.00;;;;;;;10.81;85.58;101634.63;5011105;28;20014;-76
2022/10/08 05:00:05;;;;;;;8.23;4.82;;;;;;;10.96;85.70;101663.06;5002546;28;20037;-76
2022/10/08 05:02:30;;;;;;;9.85;5.57;;;;;;;10.96;86.11;101668.25;5011244;28;20033;-76
2022/10/08 05:04:55;;;;;;;11.35;5.40;;;;;;;10.98;86.44;101671.72;5011076;28;20022;-75
2022/10/08 05:07:21;;;;;;;9.55;6.10;;;;;;;10.98;86.48;101665.66;5011174;28;20555;-76
2022/10/08 05:09:46;;;;;;;12.32;6.22;;;;;;;10.98;86.93;101674.31;5010737;28;20080;-76
2022/10/08 05:12:11;;;;;;;11.18;6.65;;;;;;;10.99;87.05;101668.22;5017751;28;20033;-75
2022/10/08 05:14:36;;;;;;;13.23;7.75;;;;;;;11.00;87.00;101680.38;5015338;28;20573;-76
2022/10/08 05:17:02;;;;;;;12.98;8.02;;;;;;;11.00;87.00;101680.38;5009467;28;20029;-75
2022/10/08 05:19:27;;;;;;;15.52;8.38;;;;;;;11.01;87.20;101681.25;5011209;28;20120;-76
2022/10/08 05:21:52;;;;;;;17.88;9.20;;;;;;;11.00;87.43;101685.56;5011511;28;20072;-76
2022/10/08 05:24:18;;;;;;;16.83;9.43;;;;;;;11.00;87.12;101685.56;5010210;28;20034;-75
2022/10/08 05:26:43;;;;;;;17.42;10.30;;;;;;;11.00;87.35;101684.72;5010996;28;20034;-76
2022/10/08 05:29:09;;;;;;;17.88;10.05;;;;;;;11.01;87.74;101686.44;5012287;28;20034;-76
2022/10/08 05:31:35;;;;;;;18.73;10.32;;;;;;;11.01;87.80;101682.09;5010820;28;20088;-75
2022/10/08 05:34:00;;;;;;;20.98;11.07;;;;;;;11.00;87.93;101684.72;5012353;28;20022;-76
2022/10/08 05:36:28;;;;;;;21.33;11.60;;;;;;;11.00;88.12;101696.00;5011974;28;20041;-76
2022/10/08 05:38:55;;;;;;;21.67;11.65;;;;;;;10.98;88.21;101689.94;5001379;28;20041;-76
2022/10/08 05:41:23;;;;;;;19.48;11.30;;;;;;;10.98;88.37;101692.53;5003860;28;20029;-76
2022/10/08 05:43:49;;;;;;;21.02;12.65;;;;;;;10.99;88.25;101703.84;5012690;28;20477;-76
2022/10/08 05:46:15;;;;;;;22.83;13.35;;;;;;;11.00;88.51;101705.56;4994267;28;20486;-76
2022/10/08 05:48:41;;;;;;;23.95;13.15;;;;;;;11.00;88.25;101709.00;5011705;28;20045;-76
2022/10/08 05:51:10;;;;;;;22.70;13.77;;;;;;;10.98;88.34;101713.38;5015950;28;20041;-76
2022/10/08 05:53:40;;;;;;;23.30;13.38;;;;;;;10.99;88.45;101714.25;5016510;28;20036;-76
2022/10/08 05:56:08;;;;;;;27.27;13.85;;;;;;;10.98;88.67;101723.78;5015620;28;20030;-76
2022/10/08 05:58:35;;;;;;;23.13;13.52;;;;;;;10.97;88.30;101719.47;5015266;28;20034;-76
2022/10/08 06:01:03;;;;;;;27.92;14.60;;;;;;;10.98;88.45;101723.78;5012986;28;20416;-76
2022/10/08 06:03:29;;;;;;;24.35;13.82;;;;;;;10.98;88.47;101734.19;5012495;28;20038;-76
2022/10/08 06:06:01;;;;;;;26.50;14.55;;;;;;;10.97;88.70;101736.84;5011005;28;20431;-76
2022/10/08 06:08:26;;;;;;;26.95;14.35;;;;;;;10.95;88.63;101739.44;5014231;28;20069;-76
2022/10/08 06:10:52;;;;;;;24.77;14.75;;;;;;;10.92;88.78;101742.97;5014555;28;20061;-76
2022/10/08 06:13:19;;;;;;;27.80;15.57;;;;;;;10.94;88.94;101750.72;5002018;28;20034;-76
2022/10/08 06:16:01;;;;;;;30.30;16.08;;;;;;;10.95;89.05;101752.47;5005552;28;20480;-76
2022/10/08 06:18:29;;;;;;;29.70;15.55;;;;;;;10.94;88.83;101758.53;5004465;28;20109;-76
2022/10/08 06:20:54;;;;;;;26.95;16.17;;;;;;;10.94;88.76;101753.34;4992890;28;20021;-76
2022/10/08 06:23:21;;;;;;;30.45;15.90;;;;;;;10.94;88.84;101761.16;5014428;28;20025;-76
2022/10/08 06:25:47;;;;;;;28.80;15.48;;;;;;;10.92;89.11;101762.94;5011847;28;20030;-76
2022/10/08 06:28:13;;;;;;;27.58;15.57;;;;;;;10.90;89.33;101757.72;5012255;28;20477;-76
2022/10/08 06:30:42;;;;;;;26.08;15.60;;;;;;;10.92;89.13;101765.53;4991792;28;20457;-76
2022/10/08 06:33:08;;;;;;;27.90;15.63;;;;;;;10.93;89.16;101772.47;5014129;28;20116;-76
2022/10/08 06:35:35;;;;;;;29.08;15.45;;;;;;;10.96;89.10;101781.97;5012290;28;20100;-76
2022/10/08 06:38:01;;;;;;;26.90;14.90;;;;;;;10.98;89.07;101785.44;5012696;28;20032;-76
2022/10/08 06:40:26;;;;;;;31.85;14.93;;;;;;;11.01;89.09;101785.41;5012343;28;20481;-76
2022/10/08 06:42:52;;;;;;;31.67;15.30;;;;;;;11.03;89.07;101789.69;5011243;28;20056;-76
2022/10/08 06:45:17;;;;;;;25.73;13.30;;;;;;;11.05;88.91;101798.34;4994390;28;20042;-76
2022/10/08 06:47:42;;;;;;;27.70;15.10;;;;;;;11.05;88.94;101795.75;5011181;28;20409;-76
2022/10/08 06:50:08;;;;;;;27.92;15.25;;;;;;;11.06;88.99;101794.88;5013515;28;20030;-76
2022/10/08 06:52:33;;;;;;;26.48;14.48;;;;;;;11.06;88.92;101801.81;5011738;28;20488;-77
2022/10/08 06:54:58;;;;;;;32.38;15.18;;;;;;;11.07;89.00;101819.16;5012518;28;20030;-75
2022/10/08 06:57:24;;;;;;;28.95;14.93;;;;;;;11.07;89.09;101816.53;5013146;28;20037;-76
2022/10/08 06:59:53;;;;;;;28.25;15.52;;;;;;;11.10;89.02;101823.47;5012419;28;20033;-76
2022/10/08 07:02:19;;;;;;;27.85;14.80;;;;;;;11.12;89.12;101825.19;5008751;28;20385;-76
2022/10/08 07:04:44;;;;;;;29.98;15.15;;;;;;;11.16;89.25;101836.41;5011626;28;20030;-75
2022/10/08 07:07:09;;;;;;;28.38;15.00;;;;;;;11.19;89.11;101831.16;5012552;28;20041;-76
2022/10/08 07:09:35;;;;;;;28.88;15.00;;;;;;;11.20;89.04;101835.50;5010635;28;20033;-76
2022/10/08 07:12:00;;;;;;;28.45;14.82;;;;;;;11.22;88.97;101847.59;5011938;28;20084;-76
2022/10/08 07:14:25;;;;;;;29.73;15.13;;;;;;;11.28;88.64;101854.47;5011664;28;20195;-76
2022/10/08 07:16:51;;;;;;;27.23;14.60;;;;;;;11.34;88.53;101856.19;5011459;28;20080;-76
2022/10/08 07:19:16;;;;;;;27.02;14.02;;;;;;;11.37;88.63;101857.00;5013375;28;20022;-76
2022/10/08 07:21:41;;;;;;;31.13;15.23;;;;;;;11.38;88.57;101861.31;5008797;28;20448;-75
2022/10/08 07:24:07;;;;;;;28.15;14.25;;;;;;;11.39;88.06;101868.25;5013777;28;20323;-76
2022/10/08 07:26:33;;;;;;;26.00;13.70;;;;;;;11.40;88.16;101866.50;5013239;28;20036;-76
2022/10/08 07:29:02;;;;;;;29.30;14.10;;;;;;;11.41;88.49;101870.84;5010026;28;20108;-76
2022/10/08 07:31:30;;;;;;;26.55;14.27;;;;;;;11.42;88.16;101867.34;5009801;28;20123;-76
2022/10/08 07:33:57;;;;;;;29.85;13.93;;;;;;;11.45;88.53;101874.25;5008558;28;20025;-76
2022/10/08 07:36:24;;;;;;;24.13;13.43;;;;;;;11.46;88.24;101875.97;5011861;28;20467;-76
2022/10/08 07:39:26;;;;;;;26.48;13.43;;;;;;;11.48;87.73;101880.31;5008530;28;20030;-76
2022/10/08 07:41:52;;;;;;;27.10;13.10;;;;;;;11.52;87.75;101886.34;5009601;28;20560;-76
2022/10/08 07:44:17;;;;;;;25.10;12.98;;;;;;;11.54;87.49;101889.78;5011385;28;20034;-76
2022/10/08 07:46:50;;;;;;;22.40;11.48;;;;;;;11.57;87.63;101894.97;5010011;28;20057;-76
2022/10/08 07:49:17;;;;;;;22.67;11.73;;;;;;;11.61;87.67;101891.44;5009072;28;20547;-76
2022/10/08 07:51:44;;;;;;;21.90;11.45;;;;;;;11.65;87.46;101900.91;5009866;28;20043;-76
2022/10/08 07:54:13;;;;;;;19.08;9.70;;;;;;;11.68;86.80;101900.88;5008825;28;20017;-76
2022/10/08 07:56:39;;;;;;;16.40;8.30;;;;;;;11.69;84.26;101900.00;5009679;28;20026;-76
2022/10/08 07:59:05;;;;;;;16.27;8.10;;;;;;;11.72;85.14;101900.84;5010687;28;20029;-76
2022/10/08 08:01:32;;;;;;;13.73;7.57;;;;;;;11.76;84.53;101899.94;5011037;28;20056;-76
2022/10/08 08:04:08;;;;;;;12.52;6.55;;;;;;;11.80;84.31;101902.47;5008441;28;20504;-76
2022/10/08 08:06:41;;;;;;;12.18;6.22;;;;;;;11.84;83.70;101905.88;5013664;28;20396;-76
2022/10/08 08:09:07;;;;;;;12.63;5.68;;;;;;;11.89;83.35;101913.63;5011998;28;20021;-76
2022/10/08 08:11:33;;;;;;;11.80;5.22;;;;;;;11.91;83.17;101915.38;5011840;28;20088;-76
2022/10/08 08:13:58;;;;;;;9.13;4.43;;;;;;;11.96;82.64;101918.75;5010937;28;20033;-75
2022/10/08 08:16:25;;;;;;;9.45;4.50;;;;;;;11.99;82.21;101928.31;5013148;28;20101;-76
2022/10/08 08:18:53;;;;;;;10.15;4.20;;;;;;;12.03;81.73;101934.34;5010232;28;20026;-76
2022/10/08 08:21:21;;;;;;;8.27;3.55;;;;;;;12.04;80.97;101929.09;5011160;28;20473;-75
2022/10/08 08:23:49;;;;;;;5.30;2.80;;;;;;;12.07;79.91;101942.09;5010136;28;20071;-76
2022/10/08 08:26:17;;;;;;;9.65;2.90;;;;;;;12.08;79.86;101935.16;5009510;28;20113;-75
2022/10/08 08:28:42;;;;;;;9.63;3.17;;;;;;;12.10;80.81;101933.41;5010754;28;20026;-75
2022/10/08 08:31:07;;;;;;;7.00;2.60;;;;;;;12.14;79.27;101940.25;5011667;28;20092;-75
2022/10/08 08:33:33;;;;;;;7.40;2.72;;;;;;;12.17;79.72;101948.06;4998235;28;20492;-75
2022/10/08 08:35:58;;;;;;;7.32;2.60;;;;;;;12.21;79.80;101949.75;5010685;28;20072;-76
2022/10/08 08:38:23;;;;;;;8.95;2.80;;;;;;;12.22;78.57;101956.69;5008182;28;20026;-75
2022/10/08 08:40:49;;;;;;;8.30;2.60;;;;;;;12.23;78.93;101961.03;5007913;28;20111;-75
2022/10/08 08:43:14;;;;;;;7.95;2.55;;;;;;;12.24;79.31;101970.56;5009325;28;20036;-76
2022/10/08 08:45:42;;;;;;;8.23;2.47;;;;;;;12.25;78.56;101966.19;5009117;28;20129;-76
2022/10/08 08:48:27;;;;;;;6.10;2.15;;;;;;;12.29;79.15;101979.22;5009347;28;20029;-76
2022/10/08 08:50:55;;;;;;;6.38;1.83;;;;;;;12.32;77.94;101977.41;4991839;28;20432;-76
2022/10/08 08:53:21;;;;;;;7.22;2.03;;;;;;;12.33;77.83;101971.31;5010037;28;20109;-75
2022/10/08 08:55:52;;;;;;;7.97;2.10;;;;;;;12.38;78.56;101978.19;5011498;28;20030;-76
2022/10/08 08:58:36;;;;;;;5.25;1.65;;;;;;;12.41;76.73;101977.28;5008256;28;20026;-76
2022/10/08 09:01:07;;;;;;;5.07;1.50;;;;;;;12.43;76.22;101981.59;5007085;28;20470;-76
2022/10/08 09:03:34;;;;;;;6.60;1.45;;;;;;;12.48;76.33;101989.34;4990797;28;20030;-76
2022/10/08 09:06:04;;;;;;;5.57;1.35;;;;;;;12.53;73.95;101984.06;5009923;28;20026;-75
2022/10/08 09:08:34;;;;;;;7.15;1.23;;;;;;;12.57;74.81;101989.22;5010558;28;20388;-76
2022/10/08 09:11:02;;;;;;;4.43;1.00;;;;;;;12.62;73.93;101988.28;5009334;28;20088;-75
2022/10/08 09:13:49;;;;;;;4.68;1.10;;;;;;;12.68;73.73;101990.78;5009849;28;20053;-76
2022/10/08 09:16:15;;;;;;;4.15;1.00;;;;;;;12.72;72.46;101990.69;5010033;28;20033;-75
2022/10/08 09:18:46;;;;;;;5.03;0.80;;;;;;;12.80;71.41;101995.81;5003594;28;20032;-76
2022/10/08 09:21:12;;;;;;;6.13;1.00;;;;;;;12.88;72.10;101998.31;4986652;28;20038;-75
2022/10/08 09:23:37;;;;;;;7.80;0.95;;;;;;;12.97;72.48;101995.53;5004983;28;20486;-75
2022/10/08 09:26:24;;;;;;;3.55;0.70;;;;;;;13.12;72.92;102017.03;5006349;28;20843;-75
2022/10/08 09:28:52;;;;;;;4.45;0.90;;;;;;;13.14;69.66;102016.16;5005026;28;20030;-75
2022/10/08 09:31:42;;;;;;;4.85;1.00;;;;;;;13.18;71.22;102020.41;5005432;28;20052;-75
2022/10/08 09:34:16;;;;;;;6.25;0.90;;;;;;;13.20;68.69;102021.25;5008955;28;20041;-75
2022/10/08 09:36:53;;;;;;;2.75;0.70;;;;;;;13.19;68.83;102022.13;5007282;28;20026;-75
2022/10/08 09:39:28;;;;;;;6.00;0.88;;;;;;;13.23;67.60;102029.91;5008629;28;20033;-75
2022/10/08 09:42:13;;;;;;;4.00;0.90;;;;;;;13.28;68.10;102028.09;5005503;28;20034;-74
2022/10/08 09:44:47;;;;;;;2.42;0.70;;;;;;;13.36;67.02;102037.53;5008993;28;20032;-75
2022/10/08 09:47:15;;;;;;;4.15;0.82;;;;;;;13.44;66.04;102033.91;5008338;28;20049;-74
2022/10/08 09:49:41;;;;;;;4.28;0.80;;;;;;;13.53;67.42;102039.00;5006103;28;20048;-75
2022/10/08 09:52:14;;;;;;;4.07;0.90;;;;;;;13.63;67.53;102039.69;5006307;28;20484;-75
2022/10/08 09:54:47;;;;;;;4.30;0.93;;;;;;;13.66;65.81;102050.09;5009795;28;20034;-75
2022/10/08 09:57:16;;;;;;;3.15;0.63;;;;;;;13.65;65.70;102062.28;5008583;28;20674;-75
2022/10/08 09:59:55;;;;;;;4.45;0.77;;;;;;;13.57;66.64;102056.34;5007277;28;20397;-75
2022/10/08 10:02:26;;;;;;;3.33;0.88;;;;;;;13.49;67.26;102064.31;5007675;28;20472;-75
2022/10/08 10:04:53;;;;;;;4.93;0.93;;;;;;;13.44;67.07;102060.94;4991050;28;20033;-75
2022/10/08 10:07:19;;;;;;;3.55;0.93;;;;;;;13.38;66.79;102071.47;5008227;28;20064;-75
2022/10/08 10:09:57;;;;;;;7.15;0.80;;;;;;;13.32;68.00;102067.22;5008167;28;20061;-74
2022/10/08 10:12:31;;;;;;;3.90;1.00;;;;;;;13.34;68.04;102068.06;5007200;28;20029;-75
2022/10/08 10:15:03;;;;;;;5.50;0.80;;;;;;;13.39;67.56;102069.72;5010654;28;20366;-74
2022/10/08 10:17:35;;;;;;;3.60;0.70;;;;;;;13.42;65.15;102062.72;5008136;28;20034;-75
2022/10/08 10:20:17;;;;;;;4.57;0.80;;;;;;;13.47;65.82;102071.34;5008334;28;20496;-75
2022/10/08 10:22:52;;;;;;;2.15;0.70;;;;;;;13.56;62.29;102074.66;5007242;28;20041;-75
2022/10/08 10:25:39;;;;;;;2.10;0.60;;;;;;;13.65;65.30;102070.13;4991377;28;20156;-75
2022/10/08 10:28:39;;;;;;;1.42;0.40;;;;;;;13.73;63.57;102072.59;5007301;28;20061;-74
2022/10/08 10:31:06;;;;;;;4.32;0.80;;;;;;;13.77;62.17;102069.03;5004578;28;20037;-75
2022/10/08 10:33:38;;;;;;;4.07;0.90;;;;;;;13.87;62.04;102074.97;5005307;28;20122;-75
2022/10/08 10:36:05;;;;;;;;;;;;;;;13.98;64.18;102077.34;5004202;28;20045;-75
2022/10/08 10:38:37;;;;;;;3.42;0.95;;;;;;;14.00;60.64;102080.81;5004534;28;20011;-75
2022/10/08 10:41:30;;;;;;;3.70;0.50;;;;;;;14.01;61.81;102079.88;5003697;28;20034;-75
2022/10/08 10:44:07;;;;;;;2.15;0.50;;;;;;;14.02;62.16;102083.38;5006174;28;20046;-75
2022/10/08 10:46:42;;;;;;;4.53;0.75;;;;;;;14.01;60.49;102079.88;5004423;28;20144;-74
2022/10/08 10:49:15;;;;;;;4.30;0.70;;;;;;;13.98;60.09;102085.22;4990216;28;20380;-74
2022/10/08 10:52:04;;;;;;;2.30;0.47;;;;;;;13.95;61.12;102091.34;5006474;28;20045;-75
2022/10/08 10:55:00;;;;;;;1.92;0.50;;;;;;;13.95;60.41;102091.34;5004335;28;20040;-75
2022/10/08 10:57:57;;;;;;;3.88;0.70;;;;;;;14.02;61.79;102096.47;5005851;28;20160;-75
2022/10/08 11:00:26;;;;;;;2.72;0.80;;;;;;;14.01;57.85;102087.75;4987274;28;20038;-75
2022/10/08 11:03:08;;;;;;;4.60;0.70;;;;;;;14.02;58.46;102093.84;5005488;28;20092;-75
2022/10/08 11:05:35;;;;;;;;;;;;;;;14.02;61.64;102086.00;5008427;28;20488;-75
2022/10/08 11:08:06;;;;;;;5.53;0.65;;;;;;;14.02;57.60;102101.69;5008947;28;19952;-74
2022/10/08 11:11:16;;;;;;;2.35;0.60;;;;;;;14.03;59.25;102090.34;5007062;28;20036;-74
2022/10/08 11:13:57;;;;;;;3.95;0.70;;;;;;;14.01;58.07;102092.97;5007399;28;20532;-75
2022/10/08 11:16:50;;;;;;;4.50;0.67;;;;;;;14.01;60.08;102089.50;5007145;28;20051;-75
2022/10/08 11:19:42;;;;;;;4.22;0.98;;;;;;;14.03;59.43;102088.56;5007238;28;20281;-75
2022/10/08 11:22:23;;;;;;;;;;;;;;;14.10;60.12;102098.03;5006360;28;20036;-75
2022/10/08 11:25:02;;;;;;;5.88;0.52;;;;;;;14.05;56.36;102101.66;5006390;28;19941;-75
2022/10/08 11:27:46;;;;;;;4.20;0.63;;;;;;;14.07;58.04;102098.09;5006218;28;20105;-74
2022/10/08 11:30:29;;;;;;;3.17;0.60;;;;;;;14.10;57.63;102102.38;5007272;28;20091;-75
2022/10/08 11:32:56;;;;;;;7.28;0.80;;;;;;;14.14;55.90;102093.59;5007007;28;20117;-75
2022/10/08 11:35:29;;;;;;;2.53;0.60;;;;;;;14.16;56.24;102101.44;5004292;28;20092;-75
2022/10/08 11:38:05;;;;;;;3.88;0.60;;;;;;;14.24;56.81;102104.72;5007888;28;20038;-75
2022/10/08 11:40:34;;;;;;;2.60;0.60;;;;;;;14.32;54.68;102112.44;5008096;28;20049;-75
2022/10/08 11:43:10;;;;;;;3.40;0.75;;;;;;;14.35;54.84;102097.50;5009960;28;20060;-74
2022/10/08 11:45:42;;;;;;;3.13;0.50;;;;;;;14.42;54.61;102098.25;5006964;28;20073;-74
2022/10/08 11:48:32;;;;;;;2.80;0.50;;;;;;;14.46;55.31;102110.38;5004886;28;20041;-75
2022/10/08 11:51:33;;;;;;;2.60;0.60;;;;;;;14.49;57.21;102110.31;5006103;28;20226;-75